sensor_id;sensor_type;location;lat;lon;timestamp;temperature;humidity
56076;DHT22;41951;49.022;12.066;2022-07-01T00:01:27;21.30;99.90
56076;DHT22;41951;49.022;12.066;2022-07-01T00:03:53;21.20;99.90
56076;DHT22;41951;49.022;12.066;2022-07-01T00:06:19;21.20;99.90
56076;DHT22;41951;49.022;12.066;2022-07-01T00:08:45;21.30;99.90
56076;DHT22;41951;49.022;12.066;2022-07-01T00:11:11;21.30;99.90
56076;DHT22;41951;49.022;12.066;2022-07-01T00:13:36;21.30;99.90
56076;DHT22;41951;49.022;12.066;2022-07-01T00:16:02;21.30;99.90
56076;DHT22;41951;49.022;12.066;2022-07-01T00:18:29;21.10;99.90
56076;DHT22;41951;49.022;12.066;2022-07-01T00:20:54;21.10;99.90
56076;DHT22;41951;49.022;12.066;2022-07-01T00:23:20;21.10;99.90
56076;DHT22;41951;49.022;12.066;2022-07-01T00:25:46;21.10;99.90
56076;DHT22;41951;49.022;12.066;2022-07-01T00:28:11;21.20;99.90
56076;DHT22;41951;49.022;12.066;2022-07-01T00:30:37;21.30;99.90
56076;DHT22;41951;49.022;12.066;2022-07-01T00:33:03;21.40;99.90
56076;DHT22;41951;49.022;12.066;2022-07-01T00:35:29;21.20;99.90
56076;DHT22;41951;49.022;12.066;2022-07-01T00:37:55;21.10;99.90
56076;DHT22;41951;49.022;12.066;2022-07-01T00:40:21;21.00;99.90
56076;DHT22;41951;49.022;12.066;2022-07-01T00:42:46;20.90;99.90
56076;DHT22;41951;49.022;12.066;2022-07-01T00:45:12;21.30;99.90
56076;DHT22;41951;49.022;12.066;2022-07-01T00:47:40;20.90;99.90
56076;DHT22;41951;49.022;12.066;2022-07-01T00:50:07;20.90;99.90
56076;DHT22;41951;49.022;12.066;2022-07-01T00:52:34;21.10;99.90
56076;DHT22;41951;49.022;12.066;2022-07-01T00:55:02;21.30;99.90
56076;DHT22;41951;49.022;12.066;2022-07-01T00:57:33;21.20;99.90
56076;DHT22;41951;49.022;12.066;2022-07-01T01:00:00;21.20;99.90
56076;DHT22;41951;49.022;12.066;2022-07-01T01:02:26;21.30;99.90
56076;DHT22;41951;49.022;12.066;2022-07-01T01:04:51;21.30;99.90
56076;DHT22;41951;49.022;12.066;2022-07-01T01:07:17;21.30;99.90
56076;DHT22;41951;49.022;12.066;2022-07-01T01:09:42;21.30;99.90
56076;DHT22;41951;49.022;12.066;2022-07-01T01:12:08;21.30;99.90
56076;DHT22;41951;49.022;12.066;2022-07-01T01:14:49;21.40;99.90
56076;DHT22;41951;49.022;12.066;2022-07-01T01:17:16;21.40;99.90
56076;DHT22;41951;49.022;12.066;2022-07-01T01:19:42;21.40;99.90
56076;DHT22;41951;49.022;12.066;2022-07-01T01:22:09;21.30;99.90
56076;DHT22;41951;49.022;12.066;2022-07-01T01:24:36;21.40;99.90
56076;DHT22;41951;49.022;12.066;2022-07-01T01:27:04;21.40;99.90
56076;DHT22;41951;49.022;12.066;2022-07-01T01:29:30;21.40;99.90
56076;DHT22;41951;49.022;12.066;2022-07-01T01:31:56;21.40;99.90
56076;DHT22;41951;49.022;12.066;2022-07-01T01:34:21;21.40;99.90
56076;DHT22;41951;49.022;12.066;2022-07-01T01:36:47;21.40;99.90
56076;DHT22;41951;49.022;12.066;2022-07-01T01:39:13;21.40;99.90
56076;DHT22;41951;49.022;12.066;2022-07-01T01:41:42;21.40;99.90
56076;DHT22;41951;49.022;12.066;2022-07-01T01:44:08;21.30;99.90
56076;DHT22;41951;49.022;12.066;2022-07-01T01:46:34;21.30;99.90
56076;DHT22;41951;49.022;12.066;2022-07-01T01:49:00;21.20;99.90
56076;DHT22;41951;49.022;12.066;2022-07-01T01:51:27;21.20;99.90
56076;DHT22;41951;49.022;12.066;2022-07-01T01:53:52;21.20;99.90
56076;DHT22;41951;49.022;12.066;2022-07-01T01:56:18;21.20;99.90
56076;DHT22;41951;49.022;12.066;2022-07-01T01:58:44;21.10;99.90
56076;DHT22;41951;49.022;12.066;2022-07-01T02:01:11;21.10;99.90
56076;DHT22;41951;49.022;12.066;2022-07-01T02:03:37;21.10;99.90
56076;DHT22;41951;49.022;12.066;2022-07-01T02:06:04;21.10;99.90
56076;DHT22;41951;49.022;12.066;2022-07-01T02:08:30;21.00;99.90
56076;DHT22;41951;49.022;12.066;2022-07-01T02:10:57;20.90;99.90
56076;DHT22;41951;49.022;12.066;2022-07-01T02:13:22;21.00;99.90
56076;DHT22;41951;49.022;12.066;2022-07-01T02:15:48;20.90;99.90
56076;DHT22;41951;49.022;12.066;2022-07-01T02:18:15;20.90;99.90
56076;DHT22;41951;49.022;12.066;2022-07-01T02:20:41;20.80;99.90
56076;DHT22;41951;49.022;12.066;2022-07-01T02:23:07;20.80;99.90
56076;DHT22;41951;49.022;12.066;2022-07-01T02:25:34;20.70;99.90
56076;DHT22;41951;49.022;12.066;2022-07-01T02:27:59;20.80;99.90
56076;DHT22;41951;49.022;12.066;2022-07-01T02:30:29;20.70;99.90
56076;DHT22;41951;49.022;12.066;2022-07-01T02:32:56;20.60;99.90
56076;DHT22;41951;49.022;12.066;2022-07-01T02:35:22;20.70;99.90
56076;DHT22;41951;49.022;12.066;2022-07-01T02:37:48;20.70;99.90
56076;DHT22;41951;49.022;12.066;2022-07-01T02:40:13;20.70;99.90
56076;DHT22;41951;49.022;12.066;2022-07-01T02:42:40;20.60;99.90
56076;DHT22;41951;49.022;12.066;2022-07-01T02:45:06;20.50;99.90
56076;DHT22;41951;49.022;12.066;2022-07-01T02:47:35;20.50;99.90
56076;DHT22;41951;49.022;12.066;2022-07-01T02:50:02;20.50;99.90
56076;DHT22;41951;49.022;12.066;2022-07-01T02:52:28;20.60;99.90
56076;DHT22;41951;49.022;12.066;2022-07-01T02:54:54;20.70;99.90
56076;DHT22;41951;49.022;12.066;2022-07-01T02:57:20;20.50;99.90
56076;DHT22;41951;49.022;12.066;2022-07-01T02:59:45;20.50;99.90
56076;DHT22;41951;49.022;12.066;2022-07-01T03:02:11;20.40;99.90
56076;DHT22;41951;49.022;12.066;2022-07-01T03:04:37;20.50;99.90
56076;DHT22;41951;49.022;12.066;2022-07-01T03:07:03;20.40;99.90
56076;DHT22;41951;49.022;12.066;2022-07-01T03:09:28;20.40;99.90
56076;DHT22;41951;49.022;12.066;2022-07-01T03:11:54;20.40;99.90
56076;DHT22;41951;49.022;12.066;2022-07-01T03:14:20;20.40;99.90
56076;DHT22;41951;49.022;12.066;2022-07-01T03:16:46;20.40;99.90
56076;DHT22;41951;49.022;12.066;2022-07-01T03:19:14;20.50;99.90
56076;DHT22;41951;49.022;12.066;2022-07-01T03:21:40;20.50;99.90
56076;DHT22;41951;49.022;12.066;2022-07-01T03:24:06;20.60;99.90
56076;DHT22;41951;49.022;12.066;2022-07-01T03:26:32;20.50;99.90
56076;DHT22;41951;49.022;12.066;2022-07-01T03:28:57;20.40;99.90
56076;DHT22;41951;49.022;12.066;2022-07-01T03:31:23;20.40;99.90
56076;DHT22;41951;49.022;12.066;2022-07-01T03:33:49;20.40;99.90
56076;DHT22;41951;49.022;12.066;2022-07-01T03:36:14;20.40;99.90
56076;DHT22;41951;49.022;12.066;2022-07-01T03:38:40;20.20;99.90
56076;DHT22;41951;49.022;12.066;2022-07-01T03:41:05;20.20;99.90
56076;DHT22;41951;49.022;12.066;2022-07-01T03:43:31;20.30;99.90
56076;DHT22;41951;49.022;12.066;2022-07-01T03:45:57;20.20;99.90
56076;DHT22;41951;49.022;12.066;2022-07-01T03:48:22;20.10;99.90
56076;DHT22;41951;49.022;12.066;2022-07-01T03:50:48;20.10;99.90
56076;DHT22;41951;49.022;12.066;2022-07-01T03:53:13;20.20;99.90
56076;DHT22;41951;49.022;12.066;2022-07-01T03:55:57;20.20;99.90
56076;DHT22;41951;49.022;12.066;2022-07-01T03:58:23;20.10;99.90
56076;DHT22;41951;49.022;12.066;2022-07-01T04:00:49;20.10;99.90
56076;DHT22;41951;49.022;12.066;2022-07-01T04:03:14;20.10;99.90
56076;DHT22;41951;49.022;12.066;2022-07-01T04:05:40;20.00;99.90
56076;DHT22;41951;49.022;12.066;2022-07-01T04:08:07;20.00;99.90
56076;DHT22;41951;49.022;12.066;2022-07-01T04:10:37;20.00;99.90
56076;DHT22;41951;49.022;12.066;2022-07-01T04:13:04;19.90;99.90
56076;DHT22;41951;49.022;12.066;2022-07-01T04:15:30;20.00;99.90
56076;DHT22;41951;49.022;12.066;2022-07-01T04:17:56;20.00;99.90
56076;DHT22;41951;49.022;12.066;2022-07-01T04:20:22;19.90;99.90
56076;DHT22;41951;49.022;12.066;2022-07-01T04:22:50;19.90;99.90
56076;DHT22;41951;49.022;12.066;2022-07-01T04:25:16;19.90;99.90
56076;DHT22;41951;49.022;12.066;2022-07-01T04:27:42;20.00;99.90
56076;DHT22;41951;49.022;12.066;2022-07-01T04:30:08;19.90;99.90
56076;DHT22;41951;49.022;12.066;2022-07-01T04:32:34;19.90;99.90
56076;DHT22;41951;49.022;12.066;2022-07-01T04:35:00;19.90;99.90
56076;DHT22;41951;49.022;12.066;2022-07-01T04:37:26;19.80;99.90
56076;DHT22;41951;49.022;12.066;2022-07-01T04:39:51;19.70;99.90
56076;DHT22;41951;49.022;12.066;2022-07-01T04:42:17;19.70;99.90
56076;DHT22;41951;49.022;12.066;2022-07-01T04:44:45;19.70;99.90
56076;DHT22;41951;49.022;12.066;2022-07-01T04:47:11;19.70;99.90
56076;DHT22;41951;49.022;12.066;2022-07-01T04:49:37;19.60;99.90
56076;DHT22;41951;49.022;12.066;2022-07-01T04:52:03;19.60;99.90
56076;DHT22;41951;49.022;12.066;2022-07-01T04:54:28;19.70;99.90
56076;DHT22;41951;49.022;12.066;2022-07-01T04:56:54;19.60;99.90
56076;DHT22;41951;49.022;12.066;2022-07-01T04:59:20;19.60;99.90
56076;DHT22;41951;49.022;12.066;2022-07-01T05:01:46;19.80;99.90
56076;DHT22;41951;49.022;12.066;2022-07-01T05:04:15;19.60;99.90
56076;DHT22;41951;49.022;12.066;2022-07-01T05:06:41;19.60;99.90
56076;DHT22;41951;49.022;12.066;2022-07-01T05:09:06;19.60;99.90
56076;DHT22;41951;49.022;12.066;2022-07-01T05:11:33;19.70;99.90
56076;DHT22;41951;49.022;12.066;2022-07-01T05:13:58;19.80;99.90
56076;DHT22;41951;49.022;12.066;2022-07-01T05:16:24;19.90;99.90
56076;DHT22;41951;49.022;12.066;2022-07-01T05:18:50;19.90;99.90
56076;DHT22;41951;49.022;12.066;2022-07-01T05:21:35;19.80;99.90
56076;DHT22;41951;49.022;12.066;2022-07-01T05:24:19;19.80;99.90
56076;DHT22;41951;49.022;12.066;2022-07-01T05:26:44;19.80;99.90
56076;DHT22;41951;49.022;12.066;2022-07-01T05:29:10;19.80;99.90
56076;DHT22;41951;49.022;12.066;2022-07-01T05:31:39;19.80;99.90
56076;DHT22;41951;49.022;12.066;2022-07-01T05:34:04;19.80;99.90
56076;DHT22;41951;49.022;12.066;2022-07-01T05:36:32;19.70;99.90
56076;DHT22;41951;49.022;12.066;2022-07-01T05:38:58;19.70;99.90
56076;DHT22;41951;49.022;12.066;2022-07-01T05:41:23;19.70;99.90
56076;DHT22;41951;49.022;12.066;2022-07-01T05:43:49;19.70;99.90
56076;DHT22;41951;49.022;12.066;2022-07-01T05:46:14;19.80;99.90
56076;DHT22;41951;49.022;12.066;2022-07-01T05:48:40;19.90;99.90
56076;DHT22;41951;49.022;12.066;2022-07-01T05:51:05;20.00;99.90
56076;DHT22;41951;49.022;12.066;2022-07-01T05:53:34;20.10;99.90
56076;DHT22;41951;49.022;12.066;2022-07-01T05:56:00;20.20;99.90
56076;DHT22;41951;49.022;12.066;2022-07-01T05:58:28;20.20;99.90
56076;DHT22;41951;49.022;12.066;2022-07-01T06:00:54;20.30;99.90
56076;DHT22;41951;49.022;12.066;2022-07-01T06:03:19;20.30;99.90
56076;DHT22;41951;49.022;12.066;2022-07-01T06:05:45;20.20;99.90
56076;DHT22;41951;49.022;12.066;2022-07-01T06:08:11;20.20;99.90
56076;DHT22;41951;49.022;12.066;2022-07-01T06:10:36;20.40;99.90
56076;DHT22;41951;49.022;12.066;2022-07-01T06:13:03;20.20;99.90
56076;DHT22;41951;49.022;12.066;2022-07-01T06:15:30;20.00;99.90
56076;DHT22;41951;49.022;12.066;2022-07-01T06:17:56;20.10;99.90
56076;DHT22;41951;49.022;12.066;2022-07-01T06:20:22;20.10;99.90
56076;DHT22;41951;49.022;12.066;2022-07-01T06:22:48;20.00;99.90
56076;DHT22;41951;49.022;12.066;2022-07-01T06:25:13;20.00;99.90
56076;DHT22;41951;49.022;12.066;2022-07-01T06:27:41;19.90;99.90
56076;DHT22;41951;49.022;12.066;2022-07-01T06:30:08;19.80;99.90
56076;DHT22;41951;49.022;12.066;2022-07-01T06:32:36;19.80;99.90
56076;DHT22;41951;49.022;12.066;2022-07-01T06:35:02;19.70;99.90
56076;DHT22;41951;49.022;12.066;2022-07-01T06:37:28;19.80;99.90
56076;DHT22;41951;49.022;12.066;2022-07-01T06:39:56;19.80;99.90
56076;DHT22;41951;49.022;12.066;2022-07-01T06:42:22;19.70;99.90
56076;DHT22;41951;49.022;12.066;2022-07-01T06:44:48;19.60;99.90
56076;DHT22;41951;49.022;12.066;2022-07-01T06:47:14;19.60;99.90
56076;DHT22;41951;49.022;12.066;2022-07-01T06:49:39;19.60;99.90
56076;DHT22;41951;49.022;12.066;2022-07-01T06:52:05;19.30;99.90
56076;DHT22;41951;49.022;12.066;2022-07-01T06:54:31;19.20;99.90
56076;DHT22;41951;49.022;12.066;2022-07-01T06:56:56;19.20;99.90
56076;DHT22;41951;49.022;12.066;2022-07-01T06:59:22;19.20;99.90
56076;DHT22;41951;49.022;12.066;2022-07-01T07:01:47;19.20;99.90
56076;DHT22;41951;49.022;12.066;2022-07-01T07:04:15;19.30;99.90
56076;DHT22;41951;49.022;12.066;2022-07-01T07:06:40;19.40;99.90
56076;DHT22;41951;49.022;12.066;2022-07-01T07:09:06;19.50;99.90
56076;DHT22;41951;49.022;12.066;2022-07-01T07:11:31;19.40;99.90
56076;DHT22;41951;49.022;12.066;2022-07-01T07:13:57;19.40;99.90
56076;DHT22;41951;49.022;12.066;2022-07-01T07:16:22;19.30;99.90
56076;DHT22;41951;49.022;12.066;2022-07-01T07:18:51;19.10;99.90
56076;DHT22;41951;49.022;12.066;2022-07-01T07:21:17;19.00;99.90
56076;DHT22;41951;49.022;12.066;2022-07-01T07:23:43;18.90;99.90
56076;DHT22;41951;49.022;12.066;2022-07-01T07:26:09;18.90;99.90
56076;DHT22;41951;49.022;12.066;2022-07-01T07:28:35;19.00;99.90
56076;DHT22;41951;49.022;12.066;2022-07-01T07:31:01;18.90;99.90
56076;DHT22;41951;49.022;12.066;2022-07-01T07:33:26;19.00;99.90
56076;DHT22;41951;49.022;12.066;2022-07-01T07:35:52;19.00;99.90
56076;DHT22;41951;49.022;12.066;2022-07-01T07:38:17;18.90;99.90
56076;DHT22;41951;49.022;12.066;2022-07-01T07:40:43;18.80;99.90
56076;DHT22;41951;49.022;12.066;2022-07-01T07:43:09;18.70;99.90
56076;DHT22;41951;49.022;12.066;2022-07-01T07:45:34;18.40;99.90
56076;DHT22;41951;49.022;12.066;2022-07-01T07:48:01;18.50;99.90
56076;DHT22;41951;49.022;12.066;2022-07-01T07:50:27;18.50;99.90
56076;DHT22;41951;49.022;12.066;2022-07-01T07:52:53;18.30;99.90
56076;DHT22;41951;49.022;12.066;2022-07-01T07:55:19;18.40;99.90
56076;DHT22;41951;49.022;12.066;2022-07-01T07:57:45;18.30;99.90
56076;DHT22;41951;49.022;12.066;2022-07-01T08:00:12;18.40;99.90
56076;DHT22;41951;49.022;12.066;2022-07-01T08:02:39;18.40;99.90
56076;DHT22;41951;49.022;12.066;2022-07-01T08:05:05;18.50;99.90
56076;DHT22;41951;49.022;12.066;2022-07-01T08:07:35;18.60;99.90
56076;DHT22;41951;49.022;12.066;2022-07-01T08:10:02;18.60;99.90
56076;DHT22;41951;49.022;12.066;2022-07-01T08:12:28;18.70;99.90
56076;DHT22;41951;49.022;12.066;2022-07-01T08:14:53;18.70;99.90
56076;DHT22;41951;49.022;12.066;2022-07-01T08:17:19;18.50;99.90
56076;DHT22;41951;49.022;12.066;2022-07-01T08:19:45;18.50;99.90
56076;DHT22;41951;49.022;12.066;2022-07-01T08:22:10;18.50;99.90
56076;DHT22;41951;49.022;12.066;2022-07-01T08:24:36;18.40;99.90
56076;DHT22;41951;49.022;12.066;2022-07-01T08:27:01;18.20;99.90
56076;DHT22;41951;49.022;12.066;2022-07-01T08:29:27;18.10;99.90
56076;DHT22;41951;49.022;12.066;2022-07-01T08:31:53;18.10;99.90
56076;DHT22;41951;49.022;12.066;2022-07-01T08:34:18;18.10;99.90
56076;DHT22;41951;49.022;12.066;2022-07-01T08:36:44;18.30;99.90
56076;DHT22;41951;49.022;12.066;2022-07-01T08:39:09;18.40;99.90
56076;DHT22;41951;49.022;12.066;2022-07-01T08:41:35;18.60;99.90
56076;DHT22;41951;49.022;12.066;2022-07-01T08:44:01;18.80;99.90
56076;DHT22;41951;49.022;12.066;2022-07-01T08:46:27;18.70;99.90
56076;DHT22;41951;49.022;12.066;2022-07-01T08:48:53;18.70;99.90
56076;DHT22;41951;49.022;12.066;2022-07-01T08:51:19;18.70;99.90
56076;DHT22;41951;49.022;12.066;2022-07-01T08:53:44;18.50;99.90
56076;DHT22;41951;49.022;12.066;2022-07-01T08:56:10;18.50;99.90
56076;DHT22;41951;49.022;12.066;2022-07-01T08:58:54;18.60;99.90
56076;DHT22;41951;49.022;12.066;2022-07-01T09:01:24;18.70;99.90
56076;DHT22;41951;49.022;12.066;2022-07-01T09:03:55;18.70;99.90
56076;DHT22;41951;49.022;12.066;2022-07-01T09:06:26;18.70;99.90
56076;DHT22;41951;49.022;12.066;2022-07-01T09:08:52;18.80;99.90
56076;DHT22;41951;49.022;12.066;2022-07-01T09:11:20;18.80;99.90
56076;DHT22;41951;49.022;12.066;2022-07-01T09:14:14;18.70;99.90
56076;DHT22;41951;49.022;12.066;2022-07-01T09:17:08;19.00;99.90
56076;DHT22;41951;49.022;12.066;2022-07-01T09:19:48;19.00;99.90
56076;DHT22;41951;49.022;12.066;2022-07-01T09:22:14;19.10;99.90
56076;DHT22;41951;49.022;12.066;2022-07-01T09:24:41;19.30;99.90
56076;DHT22;41951;49.022;12.066;2022-07-01T09:27:09;19.30;99.90
56076;DHT22;41951;49.022;12.066;2022-07-01T09:29:38;19.10;99.90
56076;DHT22;41951;49.022;12.066;2022-07-01T09:32:05;19.00;99.90
56076;DHT22;41951;49.022;12.066;2022-07-01T09:37:07;18.70;99.90
56076;DHT22;41951;49.022;12.066;2022-07-01T09:39:54;18.50;99.90
56076;DHT22;41951;49.022;12.066;2022-07-01T09:42:21;18.60;99.90
56076;DHT22;41951;49.022;12.066;2022-07-01T09:44:56;18.30;99.90
56076;DHT22;41951;49.022;12.066;2022-07-01T09:47:26;18.20;99.90
56076;DHT22;41951;49.022;12.066;2022-07-01T09:49:53;18.20;99.90
56076;DHT22;41951;49.022;12.066;2022-07-01T09:52:20;18.20;99.90
56076;DHT22;41951;49.022;12.066;2022-07-01T09:54:47;18.20;99.90
56076;DHT22;41951;49.022;12.066;2022-07-01T09:57:13;18.40;99.90
56076;DHT22;41951;49.022;12.066;2022-07-01T09:59:38;18.50;99.90
56076;DHT22;41951;49.022;12.066;2022-07-01T10:02:06;18.30;99.90
56076;DHT22;41951;49.022;12.066;2022-07-01T10:04:34;18.20;99.90
56076;DHT22;41951;49.022;12.066;2022-07-01T10:12:47;18.00;99.90
56076;DHT22;41951;49.022;12.066;2022-07-01T10:15:17;18.00;99.90
56076;DHT22;41951;49.022;12.066;2022-07-01T10:17:45;18.00;99.90
56076;DHT22;41951;49.022;12.066;2022-07-01T10:20:15;17.80;99.90
56076;DHT22;41951;49.022;12.066;2022-07-01T10:22:43;17.80;99.90
56076;DHT22;41951;49.022;12.066;2022-07-01T10:25:34;17.80;99.90
56076;DHT22;41951;49.022;12.066;2022-07-01T10:28:27;17.80;99.90
56076;DHT22;41951;49.022;12.066;2022-07-01T10:36:05;17.60;99.90
56076;DHT22;41951;49.022;12.066;2022-07-01T10:38:31;17.70;99.90
56076;DHT22;41951;49.022;12.066;2022-07-01T10:40:57;17.80;99.90
56076;DHT22;41951;49.022;12.066;2022-07-01T10:43:35;17.80;99.90
56076;DHT22;41951;49.022;12.066;2022-07-01T10:46:01;18.00;99.90
56076;DHT22;41951;49.022;12.066;2022-07-01T10:48:31;17.90;99.90
56076;DHT22;41951;49.022;12.066;2022-07-01T10:50:56;17.90;99.90
56076;DHT22;41951;49.022;12.066;2022-07-01T10:53:22;17.90;99.90
56076;DHT22;41951;49.022;12.066;2022-07-01T10:55:51;18.00;99.90
56076;DHT22;41951;49.022;12.066;2022-07-01T10:58:18;18.20;99.90
56076;DHT22;41951;49.022;12.066;2022-07-01T11:00:48;18.30;99.90
56076;DHT22;41951;49.022;12.066;2022-07-01T11:03:20;18.20;99.90
56076;DHT22;41951;49.022;12.066;2022-07-01T11:05:53;18.20;99.90
56076;DHT22;41951;49.022;12.066;2022-07-01T11:08:19;18.20;99.90
56076;DHT22;41951;49.022;12.066;2022-07-01T11:10:49;18.20;99.90
56076;DHT22;41951;49.022;12.066;2022-07-01T11:13:16;18.20;99.90
56076;DHT22;41951;49.022;12.066;2022-07-01T11:15:45;18.20;99.90
56076;DHT22;41951;49.022;12.066;2022-07-01T11:18:13;18.20;99.90
56076;DHT22;41951;49.022;12.066;2022-07-01T11:20:39;18.30;99.90
56076;DHT22;41951;49.022;12.066;2022-07-01T11:23:04;18.30;99.90
56076;DHT22;41951;49.022;12.066;2022-07-01T11:25:31;18.30;99.90
56076;DHT22;41951;49.022;12.066;2022-07-01T11:27:57;18.40;99.90
56076;DHT22;41951;49.022;12.066;2022-07-01T11:30:22;18.50;99.90
56076;DHT22;41951;49.022;12.066;2022-07-01T11:32:54;18.30;99.90
56076;DHT22;41951;49.022;12.066;2022-07-01T11:35:28;18.40;99.90
56076;DHT22;41951;49.022;12.066;2022-07-01T11:38:21;18.30;99.90
56076;DHT22;41951;49.022;12.066;2022-07-01T11:41:25;18.20;99.90
56076;DHT22;41951;49.022;12.066;2022-07-01T11:43:51;18.20;99.90
56076;DHT22;41951;49.022;12.066;2022-07-01T11:46:17;18.20;99.90
56076;DHT22;41951;49.022;12.066;2022-07-01T11:48:47;18.10;99.90
56076;DHT22;41951;49.022;12.066;2022-07-01T11:51:18;18.20;99.90
56076;DHT22;41951;49.022;12.066;2022-07-01T11:53:46;18.20;99.90
56076;DHT22;41951;49.022;12.066;2022-07-01T11:56:14;18.20;99.90
56076;DHT22;41951;49.022;12.066;2022-07-01T12:01:08;18.30;99.90
56076;DHT22;41951;49.022;12.066;2022-07-01T12:03:34;18.30;99.90
56076;DHT22;41951;49.022;12.066;2022-07-01T12:06:00;18.30;99.90
56076;DHT22;41951;49.022;12.066;2022-07-01T12:08:26;18.20;99.90
56076;DHT22;41951;49.022;12.066;2022-07-01T12:10:52;18.20;99.90
56076;DHT22;41951;49.022;12.066;2022-07-01T12:13:22;18.00;99.90
56076;DHT22;41951;49.022;12.066;2022-07-01T12:15:48;18.00;99.90
56076;DHT22;41951;49.022;12.066;2022-07-01T12:18:15;17.90;99.90
56076;DHT22;41951;49.022;12.066;2022-07-01T12:20:52;17.90;99.90
56076;DHT22;41951;49.022;12.066;2022-07-01T12:23:18;18.00;99.90
56076;DHT22;41951;49.022;12.066;2022-07-01T12:25:50;18.00;99.90
56076;DHT22;41951;49.022;12.066;2022-07-01T12:28:30;18.00;99.90
56076;DHT22;41951;49.022;12.066;2022-07-01T12:31:22;17.90;99.90
56076;DHT22;41951;49.022;12.066;2022-07-01T12:36:16;18.10;99.90
56076;DHT22;41951;49.022;12.066;2022-07-01T12:38:42;18.20;99.90
56076;DHT22;41951;49.022;12.066;2022-07-01T12:41:28;19.50;99.90
56076;DHT22;41951;49.022;12.066;2022-07-01T12:43:54;17.90;99.90
56076;DHT22;41951;49.022;12.066;2022-07-01T12:46:32;19.00;99.90
56076;DHT22;41951;49.022;12.066;2022-07-01T12:48:59;17.80;99.90
56076;DHT22;41951;49.022;12.066;2022-07-01T12:51:29;19.60;99.90
56076;DHT22;41951;49.022;12.066;2022-07-01T12:53:58;18.00;99.90
56076;DHT22;41951;49.022;12.066;2022-07-01T12:56:26;18.10;99.90
56076;DHT22;41951;49.022;12.066;2022-07-01T12:58:53;17.90;99.90
56076;DHT22;41951;49.022;12.066;2022-07-01T13:01:19;18.00;99.90
56076;DHT22;41951;49.022;12.066;2022-07-01T13:03:46;17.90;99.90
56076;DHT22;41951;49.022;12.066;2022-07-01T13:06:12;17.90;99.90
56076;DHT22;41951;49.022;12.066;2022-07-01T13:08:38;18.00;99.90
56076;DHT22;41951;49.022;12.066;2022-07-01T13:11:04;18.00;99.90
56076;DHT22;41951;49.022;12.066;2022-07-01T13:13:31;17.80;99.90
56076;DHT22;41951;49.022;12.066;2022-07-01T13:15:57;17.80;99.90
56076;DHT22;41951;49.022;12.066;2022-07-01T13:18:23;17.80;99.90
56076;DHT22;41951;49.022;12.066;2022-07-01T13:20:48;17.80;99.90
56076;DHT22;41951;49.022;12.066;2022-07-01T13:23:14;17.60;99.90
56076;DHT22;41951;49.022;12.066;2022-07-01T13:25:40;17.40;99.90
56076;DHT22;41951;49.022;12.066;2022-07-01T13:28:08;17.30;99.90
56076;DHT22;41951;49.022;12.066;2022-07-01T13:30:34;17.40;99.90
56076;DHT22;41951;49.022;12.066;2022-07-01T13:33:02;17.20;99.90
56076;DHT22;41951;49.022;12.066;2022-07-01T13:35:27;17.10;99.90
56076;DHT22;41951;49.022;12.066;2022-07-01T13:37:53;17.10;99.90
56076;DHT22;41951;49.022;12.066;2022-07-01T13:40:19;17.00;99.90
56076;DHT22;41951;49.022;12.066;2022-07-01T13:42:44;17.00;99.90
56076;DHT22;41951;49.022;12.066;2022-07-01T13:45:10;17.30;99.90
56076;DHT22;41951;49.022;12.066;2022-07-01T13:47:37;17.30;99.90
56076;DHT22;41951;49.022;12.066;2022-07-01T13:50:02;17.30;99.90
56076;DHT22;41951;49.022;12.066;2022-07-01T13:52:28;17.20;99.90
56076;DHT22;41951;49.022;12.066;2022-07-01T13:54:55;17.10;99.90
56076;DHT22;41951;49.022;12.066;2022-07-01T13:57:22;17.00;99.90
56076;DHT22;41951;49.022;12.066;2022-07-01T13:59:47;16.90;99.90
56076;DHT22;41951;49.022;12.066;2022-07-01T14:02:13;16.80;99.90
56076;DHT22;41951;49.022;12.066;2022-07-01T14:04:39;16.80;99.90
56076;DHT22;41951;49.022;12.066;2022-07-01T14:07:04;16.80;99.90
56076;DHT22;41951;49.022;12.066;2022-07-01T14:09:30;16.70;99.90
56076;DHT22;41951;49.022;12.066;2022-07-01T14:11:56;16.90;99.90
56076;DHT22;41951;49.022;12.066;2022-07-01T14:14:22;17.00;99.90
56076;DHT22;41951;49.022;12.066;2022-07-01T14:16:50;17.00;99.90
56076;DHT22;41951;49.022;12.066;2022-07-01T14:19:16;17.00;99.90
56076;DHT22;41951;49.022;12.066;2022-07-01T14:21:41;17.00;99.90
56076;DHT22;41951;49.022;12.066;2022-07-01T14:24:07;16.80;99.90
56076;DHT22;41951;49.022;12.066;2022-07-01T14:26:33;16.80;99.90
56076;DHT22;41951;49.022;12.066;2022-07-01T14:28:58;16.80;99.90
56076;DHT22;41951;49.022;12.066;2022-07-01T14:31:24;16.80;99.90
56076;DHT22;41951;49.022;12.066;2022-07-01T14:33:50;16.90;99.90
56076;DHT22;41951;49.022;12.066;2022-07-01T14:36:18;17.00;99.90
56076;DHT22;41951;49.022;12.066;2022-07-01T14:38:43;17.00;99.90
56076;DHT22;41951;49.022;12.066;2022-07-01T14:41:09;16.90;99.90
56076;DHT22;41951;49.022;12.066;2022-07-01T14:43:35;16.70;99.90
56076;DHT22;41951;49.022;12.066;2022-07-01T14:46:01;16.40;99.90
56076;DHT22;41951;49.022;12.066;2022-07-01T14:48:29;16.30;99.90
56076;DHT22;41951;49.022;12.066;2022-07-01T14:50:55;16.10;99.90
56076;DHT22;41951;49.022;12.066;2022-07-01T14:53:21;16.00;99.90
56076;DHT22;41951;49.022;12.066;2022-07-01T14:55:46;16.00;99.90
56076;DHT22;41951;49.022;12.066;2022-07-01T14:58:12;16.00;99.90
56076;DHT22;41951;49.022;12.066;2022-07-01T15:00:37;16.00;99.90
56076;DHT22;41951;49.022;12.066;2022-07-01T15:03:03;16.10;99.90
56076;DHT22;41951;49.022;12.066;2022-07-01T15:05:30;16.10;99.90
56076;DHT22;41951;49.022;12.066;2022-07-01T15:07:55;16.20;99.90
56076;DHT22;41951;49.022;12.066;2022-07-01T15:10:21;16.30;99.90
56076;DHT22;41951;49.022;12.066;2022-07-01T15:12:47;16.30;99.90
56076;DHT22;41951;49.022;12.066;2022-07-01T15:15:12;16.10;99.90
56076;DHT22;41951;49.022;12.066;2022-07-01T15:17:42;16.00;99.90
56076;DHT22;41951;49.022;12.066;2022-07-01T15:20:13;16.00;99.90
56076;DHT22;41951;49.022;12.066;2022-07-01T15:22:39;15.90;99.90
56076;DHT22;41951;49.022;12.066;2022-07-01T15:25:05;15.80;99.90
56076;DHT22;41951;49.022;12.066;2022-07-01T15:27:31;15.90;99.90
56076;DHT22;41951;49.022;12.066;2022-07-01T15:29:57;16.00;99.90
56076;DHT22;41951;49.022;12.066;2022-07-01T15:32:23;16.20;99.90
56076;DHT22;41951;49.022;12.066;2022-07-01T15:34:49;16.30;99.90